Latest Weather Observations for Tasman Island

IDT60801

Issued at 1:11 am EST Thursday 18 July 2019 (issued every 10 minutes, with the page automatically refreshed every 10 minutes)

About weather observations | Map of weather stations | Latest weather observations for TAS | Other Formats
Station Details ID: 094155 Name: TASMAN ISLAND Lat: -43.24 Lon: 148.00 Height: 240.0 m
Data from the previous 72 hours. | See also: Recent months at Tasman Island
Date/Time
EST
Temp
°C
App
Temp
°C
Dew
Point
°C
Rel
Hum
%
Delta-T
°C
Wind Press
QNH
hPa
Press
MSL
hPa
Rain since
9am
mm
Dir  Spd
km/h
Gust
km/h
Spd
kts
Gust
kts
18/01:00am 7.1 -0.1 4.8 85 1.0 SW 32 48 17 26 1000.3 1000.6 11.8
18/12:34am 7.3 0.4 4.6 83 1.2 SW 30 52 16 28 999.9 1000.2 11.8
18/12:30am 6.6 -0.4 3.9 83 1.2 SW 30 44 16 24 999.6 999.9 11.8
18/12:15am 6.3 -0.2 4.5 88 0.8 SW 28 48 15 26 999.8 1000.1 11.8
18/12:00am 6.2 2.2 4.7 90 0.7 WNW 15 43 8 23 1000.1 1000.4 11.6
 
Date/Time
EST
Temp
°C
App
Temp
°C
Dew
Point
°C
Rel
Hum
%
Delta-T
°C
Wind Press
QNH
hPa
Press
MSL
hPa
Rain since
9am
mm
Dir  Spd
km/h
Gust
km/h
Spd
kts
Gust
kts
17/11:40pm 6.3 0.6 5.1 92 0.5 SW 24 48 13 26 999.4 999.7 11.6
17/11:30pm 6.1 2.1 5.1 93 0.4 S 15 44 8 24 999.2 999.5 11.6
17/11:00pm 5.8 1.3 4.3 90 0.7 NW 17 44 9 24 998.8 999.1 10.4
17/10:34pm 5.8 -0.1 4.1 89 0.7 WSW 24 50 13 27 997.9 998.1 8.2
17/10:30pm 6.1 1.0 4.3 88 0.8 WSW 20 46 11 25 998.1 998.3 8.2
17/10:09pm 6.4 1.3 4.2 86 1.0 WNW 20 48 11 26 997.3 997.5 7.0
17/10:00pm 6.1 1.6 4.1 87 0.9 NNE 17 44 9 24 997.1 997.3 7.0
17/09:30pm 6.6 2.6 4.9 89 0.8 NNE 15 41 8 22 997.3 997.5 6.4
17/09:00pm 5.9 1.0 4.1 88 0.8 NW 19 46 10 25 997.2 997.4 6.2
17/08:30pm 6.1 1.1 3.8 85 1.0 W 19 46 10 25 997.2 997.4 4.8
17/08:00pm 6.4 1.7 3.2 80 1.4 NNW 17 46 9 25 996.2 996.5 3.8
17/07:30pm 6.8 2.1 3.4 79 1.5 WNW 17 44 9 24 996.2 996.5 3.8
17/07:00pm 6.6 2.7 3.4 80 1.4 NW 13 44 7 24 996.3 996.6 3.8
17/06:30pm 7.2 2.5 2.9 74 1.8 NNW 17 50 9 27 995.8 996.1 3.6
17/06:00pm 6.8 2.2 3.8 81 1.3 W 17 44 9 24 995.5 995.8 3.6
17/05:37pm 5.8 0.3 3.8 87 0.9 SW 22 52 12 28 994.7 994.9 2.8
17/05:30pm 7.6 3.8 3.8 77 1.7 NNE 13 41 7 22 995.4 995.7 2.0
17/05:00pm 7.6 3.8 3.8 77 1.7 E 13 44 7 24 995.1 995.3 2.0
17/04:30pm 7.9 4.0 5.4 84 1.1 NW 15 43 8 23 995.0 995.2 1.6
17/04:00pm 8.1 4.6 5.6 84 1.2 S 13 43 7 23 995.4 995.7 1.4
17/03:30pm 8.4 4.4 5.0 79 1.5 SW 15 43 8 23 995.0 995.2 0.8
17/03:00pm 8.4 3.8 5.5 82 1.3 WNW 19 43 10 23 994.9 995.1 0.6
17/02:30pm 8.8 4.9 5.4 79 1.6 WNW 15 41 8 22 995.3 995.6 0.6
17/02:00pm 9.4 5.5 5.4 76 1.9 W 15 44 8 24 995.2 995.5 0.6
17/01:30pm 9.5 3.1 5.3 75 1.9 NW 28 46 15 25 995.7 996.0 0.6
17/01:19pm 10.4 3.5 4.5 67 2.7 WNW 30 48 16 26 995.5 995.8 0.0
17/01:00pm 11.0 3.6 3.8 61 3.3 WNW 32 46 17 25 995.7 996.0 0.0
17/12:30pm 11.6 4.7 4.6 62 3.2 NW 30 41 16 22 996.6 996.9 0.0
17/12:00pm 10.7 3.3 4.0 63 3.0 NW 32 48 17 26 997.1 997.3 0.0
17/11:46am 10.5 3.5 4.0 64 2.9 NW 30 50 16 27 997.7 997.9 0.0
17/11:30am 10.4 2.4 3.9 64 2.9 NW 35 48 19 26 998.0 998.2 0.0
17/11:00am 9.9 1.6 4.1 67 2.6 NW 37 48 20 26 999.0 999.3 0.0
17/10:30am 10.0 2.0 4.0 66 2.7 NW 35 48 19 26 999.6 999.9 0.0
17/10:00am 9.4 2.1 4.4 71 2.3 NW 32 46 17 25 1000.3 1000.6 0.0
17/09:30am 9.2 3.4 4.2 71 2.2 NW 24 41 13 22 1001.0 1001.3 0.0
17/09:00am 9.4 3.3 4.8 73 2.1 NW 26 37 14 20 1001.6 1001.8 0.2
17/08:30am 9.2 3.8 4.6 73 2.1 NW 22 32 12 17 1002.1 1002.3 0.2
17/08:00am 9.1 4.6 4.3 72 2.2 WNW 17 26 9 14 1002.4 1002.7 0.2
17/07:30am 9.1 2.9 4.3 72 2.1 WNW 26 37 14 20 1002.7 1003.0 0.2
17/07:00am 9.1 4.0 4.3 72 2.2 WNW 20 32 11 17 1003.1 1003.4 0.2
17/06:30am 9.1 2.9 4.3 72 2.1 WNW 26 41 14 22 1003.2 1003.5 0.2
17/06:00am 9.6 3.0 4.4 70 2.4 WNW 28 48 15 26 1003.6 1003.9 0.2
17/05:55am 9.6 3.0 4.4 70 2.3 WNW 28 48 15 26 1003.5 1003.8 0.2
17/05:30am 9.7 4.9 4.7 71 2.3 WNW 19 41 10 22 1004.0 1004.3 0.2
17/05:00am 9.8 6.5 4.8 71 2.3 WNW 11 33 6 18 1004.0 1004.3 0.2
17/04:30am 9.8 5.9 5.4 74 2.0 WNW 15 37 8 20 1004.8 1005.1 0.2
17/04:00am 9.8 7.2 6.0 77 1.8 WSW 9 22 5 12 1005.0 1005.3 0.2
17/03:30am 9.9 6.2 6.3 78 1.7 W 15 32 8 17 1005.2 1005.5 0.2
17/03:00am 9.8 6.2 6.7 81 1.5 WNW 15 33 8 18 1005.8 1006.1 0.2
17/02:30am 9.9 5.9 6.6 80 1.6 WNW 17 32 9 17 1006.3 1006.6 0.2
17/02:00am 9.9 5.9 6.8 81 1.5 WNW 17 30 9 16 1006.4 1006.7 0.2
17/01:30am 9.8 6.9 6.7 81 1.5 W 11 30 6 16 1006.5 1006.8 0.2
17/01:00am 9.8 6.5 6.5 80 1.6 WNW 13 28 7 15 1006.9 1007.2 0.2
17/12:30am 10.1 6.4 6.4 78 1.7 WNW 15 30 8 16 1007.1 1007.4 0.2
17/12:00am 10.0 5.4 6.5 79 1.7 NW 20 39 11 21 1007.3 1007.6 0.2
 
Date/Time
EST
Temp
°C
App
Temp
°C
Dew
Point
°C
Rel
Hum
%
Delta-T
°C
Wind Press
QNH
hPa
Press
MSL
hPa
Rain since
9am
mm
Dir  Spd
km/h
Gust
km/h
Spd
kts
Gust
kts
16/11:30pm 9.7 6.4 6.2 79 1.6 WNW 13 26 7 14 1007.6 1007.9 0.2
16/11:00pm 9.7 6.4 6.2 79 1.6 WNW 13 30 7 16 1008.2 1008.5 0.2
16/10:30pm 9.9 7.8 6.8 81 1.5 WNW 7 22 4 12 1008.4 1008.7 0.2
16/10:00pm 9.7 7.6 6.6 81 1.5 WNW 7 30 4 16 1008.5 1008.8 0.2
16/09:30pm 9.8 7.7 6.5 80 1.6 WNW 7 26 4 14 1008.6 1008.9 0.2
16/09:00pm 9.7 7.2 6.6 81 1.5 NW 9 26 5 14 1008.7 1009.0 0.2
16/08:30pm 9.8 6.6 6.9 82 1.4 WNW 13 37 7 20 1008.7 1009.0 0.2
16/08:00pm 9.8 4.9 6.9 82 1.4 W 22 44 12 24 1008.7 1009.0 0.2
16/07:30pm 9.7 4.4 6.8 82 1.4 WSW 24 44 13 24 1008.6 1008.9 0.2
16/07:00pm 9.8 3.8 6.9 82 1.4 WSW 28 46 15 25 1008.5 1008.8 0.2
16/06:30pm 9.7 3.7 7.0 83 1.3 WSW 28 46 15 25 1008.5 1008.8 0.2
16/06:11pm 9.6 3.5 6.5 81 1.5 WSW 28 46 15 25 1008.2 1008.5 0.2
16/06:00pm 9.7 2.8 6.6 81 1.5 WSW 32 46 17 25 1008.0 1008.3 0.2
16/05:30pm 9.6 3.1 6.7 82 1.4 WSW 30 46 16 25 1008.0 1008.3 0.2
16/05:01pm 9.5 3.5 7.1 85 1.1 WSW 28 46 15 25 1007.8 1008.1 0.2
16/05:00pm 9.5 3.1 7.1 85 1.1 WSW 30 46 16 25 1007.8 1008.1 0.2
16/04:40pm 9.3 3.4 7.3 87 1.0 WSW 28 46 15 25 1007.7 1008.0 0.2
16/04:30pm 9.2 2.5 7.3 88 0.9 WSW 32 46 17 25 1007.6 1007.9 0.2
16/04:07pm 9.4 3.5 7.7 89 0.8 SW 28 46 15 25 1007.5 1007.8 0.2
16/04:00pm 9.6 3.8 7.9 89 0.8 WSW 28 44 15 24 1007.7 1008.0 0.2
16/03:30pm 9.5 3.6 7.4 87 1.0 WSW 28 46 15 25 1007.4 1007.7 0.2
16/03:00pm 9.5 3.6 7.6 88 0.9 WSW 28 50 15 27 1007.1 1007.4 0.2
16/02:36pm 9.6 3.3 7.2 85 1.1 SW 30 48 16 26 1007.0 1007.3 0.2
16/02:30pm 9.5 3.2 7.3 86 1.1 SW 30 48 16 26 1006.8 1007.1 0.2
16/02:00pm 9.6 2.8 7.7 88 0.9 WSW 33 46 18 25 1006.8 1007.1 0.2
16/01:30pm 9.7 3.1 7.6 87 1.0 SW 32 46 17 25 1006.5 1006.8 0.2
16/01:02pm 9.4 3.1 7.5 88 0.9 WSW 30 52 16 28 1006.8 1007.1 0.2
16/01:00pm 9.4 3.2 7.7 89 0.8 WSW 30 46 16 25 1006.7 1007.0 0.2
16/12:30pm 9.7 3.9 8.0 89 0.8 WSW 28 46 15 25 1007.0 1007.3 0.0
16/12:00pm 9.4 3.2 7.7 89 0.8 WSW 30 52 16 28 1007.0 1007.3 0.0
16/11:35am 9.9 3.3 7.7 86 1.1 WSW 32 50 17 27 1007.0 1007.3 0.0
16/11:30am 9.7 3.1 7.6 87 1.0 WSW 32 46 17 25 1007.2 1007.5 0.0
16/11:00am 9.4 2.7 7.5 88 0.9 WSW 32 50 17 27 1007.2 1007.5 0.0
16/10:37am 9.2 2.7 8.0 92 0.6 WSW 32 52 17 28 1007.2 1007.5 0.0
16/10:30am 9.1 2.6 8.0 93 0.5 WSW 32 46 17 25 1007.3 1007.6 0.0
16/10:11am 9.2 2.9 7.5 89 0.8 WSW 30 50 16 27 1007.4 1007.7 0.0
16/10:00am 9.2 2.6 7.8 91 0.7 WSW 32 50 17 27 1007.1 1007.4 0.0
16/09:30am 9.6 3.3 7.5 87 1.0 WSW 30 48 16 26 1006.9 1007.2 0.0
16/09:00am 9.1 3.2 7.7 91 0.7 WSW 28 46 15 25 1006.6 1006.9 1.6
16/08:41am 9.3 3.5 8.1 92 0.6 WSW 28 46 15 25 1006.5 1006.8 1.6
16/08:30am 9.3 3.2 8.1 92 0.6 WSW 30 48 16 26 1006.6 1006.9 1.6
16/08:11am 9.1 2.5 7.7 91 0.7 WSW 32 50 17 27 1006.4 1006.7 1.6
16/08:00am 9.0 2.4 7.6 91 0.7 WSW 32 48 17 26 1006.2 1006.5 1.6
16/07:48am 9.2 2.6 7.8 91 0.7 WSW 32 52 17 28 1006.2 1006.5 1.6
16/07:30am 9.5 2.6 7.4 87 1.0 WSW 33 50 18 27 1006.2 1006.5 1.6
16/07:00am 9.5 3.6 7.6 88 0.9 WSW 28 48 15 26 1005.6 1006.0 1.4
16/06:30am 9.4 2.7 7.2 86 1.1 WSW 32 50 17 27 1005.0 1005.3 1.4
16/06:00am 9.8 3.5 7.6 86 1.1 WSW 30 50 16 27 1005.4 1005.7 1.4
16/05:56am 9.7 3.0 7.5 86 1.1 WSW 32 50 17 27 1005.3 1005.6 1.4
16/05:30am 9.5 2.9 7.6 88 0.9 WSW 32 48 17 26 1004.8 1005.1 1.4
16/05:01am 9.6 3.1 8.0 90 0.8 WSW 32 50 17 27 1004.9 1005.2 1.4
16/05:00am 9.6 3.1 8.0 90 0.8 WSW 32 46 17 25 1004.9 1005.2 1.4
16/04:30am 9.7 3.5 7.8 88 0.9 WSW 30 48 16 26 1004.8 1005.1 1.4
16/04:10am 9.7 3.9 8.0 89 0.8 WSW 28 48 15 26 1004.6 1004.9 1.4
16/04:00am 9.7 3.2 8.1 90 0.8 WSW 32 46 17 25 1004.7 1005.0 1.4
16/03:32am 9.5 3.0 8.3 92 0.6 WSW 32 52 17 28 1004.4 1004.7 1.4
16/03:30am 9.6 3.2 8.4 92 0.6 WSW 32 48 17 26 1004.1 1004.4 1.4
16/03:02am 9.6 4.0 8.8 95 0.4 WSW 28 46 15 25 1004.4 1004.7 1.4
16/03:00am 9.6 3.6 8.8 95 0.4 WSW 30 46 16 25 1004.3 1004.6 1.4
16/02:36am 9.6 4.0 8.7 94 0.4 WSW 28 52 15 28 1004.2 1004.5 1.4
16/02:30am 9.5 4.6 8.6 94 0.4 WSW 24 44 13 24 1004.1 1004.4 1.4
16/02:15am 9.6 4.0 8.8 95 0.4 WSW 28 48 15 26 1004.1 1004.4 1.4
16/02:00am 9.5 4.3 8.7 95 0.4 WSW 26 46 14 25 1004.6 1004.9 1.4
16/01:30am 9.4 6.2 8.5 94 0.4 W 15 43 8 23 1005.0 1005.3 1.0
16/01:00am 9.4 5.8 8.5 94 0.4 WSW 17 44 9 24 1005.0 1005.3 0.6
16/12:30am 9.4 5.8 8.3 93 0.5 WSW 17 46 9 25 1005.0 1005.3 0.6
16/12:00am 9.4 5.4 8.2 92 0.6 W 19 48 10 26 1004.7 1005.0 0.4
 
Date/Time
EST
Temp
°C
App
Temp
°C
Dew
Point
°C
Rel
Hum
%
Delta-T
°C
Wind Press
QNH
hPa
Press
MSL
hPa
Rain since
9am
mm
Dir  Spd
km/h
Gust
km/h
Spd
kts
Gust
kts
15/11:33pm 9.7 4.0 8.3 91 0.7 WSW 28 48 15 26 1004.6 1004.9 0.4
15/11:30pm 9.7 4.4 8.5 92 0.6 W 26 46 14 25 1004.4 1004.7 0.4
15/11:20pm 9.6 3.9 8.5 93 0.5 WSW 28 46 15 25 1004.4 1004.7 0.2
15/11:00pm 9.4 3.0 8.5 94 0.4 WSW 32 50 17 27 1004.4 1004.7 0.2
15/10:30pm 9.8 4.0 7.9 88 0.9 WSW 28 48 15 26 1003.9 1004.2 0.0
15/10:00pm 9.9 4.0 7.7 86 1.1 WSW 28 46 15 25 1003.7 1004.0 0.0
15/09:30pm 10.1 3.8 7.5 84 1.3 WSW 30 50 16 27 1004.2 1004.5 0.0
15/09:00pm 10.3 4.0 7.5 83 1.4 WSW 30 48 16 26 1004.0 1004.3 0.0
15/08:30pm 10.0 3.8 7.8 86 1.1 WSW 30 50 16 27 1003.7 1004.0 0.0
15/08:00pm 10.4 3.8 7.6 83 1.4 WSW 32 52 17 28 1003.6 1003.9 0.0
15/07:34pm 10.1 3.5 7.7 85 1.2 WSW 32 52 17 28 1003.1 1003.4 0.0
15/07:30pm 10.0 3.2 7.6 85 1.2 WSW 33 52 18 28 1002.8 1003.1 0.0
15/07:00pm 10.0 3.5 8.1 88 0.9 WSW 32 52 17 28 1002.9 1003.2 0.0
15/06:32pm 10.1 3.6 8.0 87 1.0 WSW 32 52 17 28 1002.5 1002.8 0.0
15/06:30pm 10.1 3.4 8.0 87 1.0 WSW 33 52 18 28 1002.5 1002.8 0.0
15/06:07pm 10.1 3.8 7.3 83 1.3 WSW 30 48 16 26 1002.7 1003.0 0.0
15/06:00pm 10.2 3.5 7.3 82 1.4 WSW 32 48 17 26 1002.6 1002.9 0.0
15/05:53pm 10.2 4.2 7.1 81 1.5 WSW 28 46 15 25 1003.0 1003.3 0.0
15/05:30pm 10.2 6.2 6.7 79 1.7 WNW 17 37 9 20 1003.1 1003.4 0.0
15/05:00pm 10.1 6.6 7.2 82 1.4 WSW 15 43 8 23 1002.9 1003.2 0.0
15/04:30pm 10.4 6.0 7.3 81 1.5 WSW 20 43 11 23 1003.3 1003.6 0.0
15/04:00pm 10.1 4.3 7.9 86 1.1 WSW 28 46 15 25 1003.1 1003.4 0.0
15/03:40pm 10.2 4.4 8.0 86 1.1 WSW 28 48 15 26 1003.2 1003.5 0.0
15/03:30pm 10.8 7.4 7.7 81 1.5 W 15 48 8 26 1003.7 1004.0 0.0
15/03:00pm 10.9 8.1 6.8 76 2.0 WNW 11 43 6 23 1003.4 1003.7 0.0
15/02:30pm 10.8 7.5 6.6 75 2.0 SW 13 44 7 24 1003.4 1003.7 0.0
15/02:00pm 10.4 7.1 6.2 75 2.0 W 13 44 7 24 1003.4 1003.7 0.0
15/01:30pm 9.9 6.5 5.7 75 2.0 WNW 13 43 7 23 1003.9 1004.2 0.0
15/01:00pm 9.6 5.7 5.2 74 2.0 W 15 41 8 22 1004.5 1004.8 0.0
15/12:30pm 9.4 5.7 4.2 70 2.3 W 13 39 7 21 1005.3 1005.6 0.0
15/12:00pm 9.2 5.1 4.2 71 2.2 W 15 43 8 23 1006.3 1006.6 0.0
15/11:30am 8.1 4.3 3.8 74 1.9 NW 13 33 7 18 1006.9 1007.2 0.0
15/11:00am 8.4 4.9 3.7 72 2.1 WNW 11 28 6 15 1007.8 1008.1 0.0
15/10:30am 8.1 4.3 3.9 75 1.8 NNW 13 41 7 22 1008.2 1008.5 0.0
15/10:00am 7.6 3.8 4.0 78 1.6 N 13 37 7 20 1008.3 1008.6 0.0
15/09:30am 7.7 4.3 4.1 78 1.6 W 11 41 6 22 1008.2 1008.5 0.0
15/09:00am 7.7 3.6 4.3 79 1.5 WSW 15 43 8 23 1008.5 1008.8 14.8
15/08:30am 7.7 3.3 4.5 80 1.4 WSW 17 44 9 24 1008.3 1008.6 14.8
15/08:00am 7.4 3.3 4.4 81 1.3 WSW 15 43 8 23 1008.1 1008.4 14.8
15/07:30am 7.6 1.2 5.4 86 1.0 WSW 28 46 15 25 1008.0 1008.3 14.6
15/07:00am 7.8 1.3 4.7 81 1.4 SW 28 48 15 26 1008.0 1008.3 14.6
15/06:30am 8.1 1.3 5.0 81 1.4 SW 30 48 16 26 1008.0 1008.3 14.6
15/06:10am 7.8 1.4 5.1 83 1.2 SW 28 46 15 25 1007.5 1007.8 14.6
15/06:00am 7.6 0.9 5.4 86 1.0 SW 30 46 16 25 1007.4 1007.7 14.4
15/05:33am 8.2 1.9 5.7 84 1.1 SW 28 48 15 26 1006.9 1007.2 14.4
15/05:30am 8.4 1.8 5.9 84 1.2 SW 30 46 16 25 1006.9 1007.2 14.4
15/05:00am 7.9 0.9 6.0 88 0.9 SW 32 46 17 25 1006.3 1006.6 14.4
15/04:46am 7.9 0.9 5.9 87 0.9 SSW 32 50 17 27 1006.0 1006.3 14.4
15/04:30am 8.5 1.1 5.1 79 1.5 SSW 33 48 18 26 1006.0 1006.3 14.4
15/04:00am 8.2 0.4 4.8 79 1.5 SSW 35 52 19 28 1005.6 1006.0 14.4
15/03:31am 8.3 1.6 5.8 84 1.1 SSW 30 48 16 26 1004.8 1005.1 14.4
15/03:30am 8.2 1.5 5.7 84 1.1 SSW 30 48 16 26 1004.8 1005.1 14.4
15/03:00am 8.8 1.5 5.4 79 1.6 SSW 33 48 18 26 1003.9 1004.2 14.2
15/02:30am 8.1 0.6 6.4 89 0.8 SSW 35 48 19 26 1003.3 1003.6 14.2
15/02:04am 8.0 2.0 6.9 93 0.5 SW 28 50 15 27 1002.1 1002.3 14.0
15/02:00am 7.8 2.5 6.7 93 0.5 SW 24 46 13 25 1002.0 1002.2 14.0
15/01:30am 7.8 0.7 5.4 85 1.1 SW 32 52 17 28 1001.2 1001.5 13.6

Other formats

Comma delimited format used in spreadsheet applications
http://www.bom.gov.au/fwo/IDT60801/IDT60801.95986.axf

JavaScript Object Notation format (JSON) in row-major order
http://www.bom.gov.au/fwo/IDT60801/IDT60801.95986.json

Data quality

Most of these data are generated automatically and are frequently updated. Quality checks on data are not normally performed. It is possible for incorrect values to appear. Refer to information at About Latest Weather Observations and please check the disclaimer before using these data.